Time;durP1;ratioP1;P1;durP2;ratioP2;P2;SDS_P1;SDS_P2;PMS_P1;PMS_P2;Temp;Humidity;BMP_temperature;BMP_pressure;BME280_temperature;BME280_humidity;BME280_pressure;Samples;Min_cycle;Max_cycle;Signal;HPM_P1;HPM_P2
2023/02/16 00:05:26;;;;;;;111.60;61.90;;;;;;;4.44;65.45;99971.36;235516;1195;140164;-66
2023/02/16 00:18:07;;;;;;;;;;;;;;;;;;;;;
2023/02/16 00:25:18;;;;;;;103.20;58.20;;;;;;;4.42;65.02;99970.14;235388;1193;138509;-65
2023/02/16 00:37:46;;;;;;;106.00;61.60;;;;;;;4.26;65.04;99952.06;233922;1194;138958;-65
2023/02/16 00:43:18;;;;;;;101.70;61.50;;;;;;;4.15;65.28;99949.66;235313;1193;138664;-63
2023/02/16 00:49:24;;;;;;;104.70;60.70;;;;;;;4.08;65.58;99942.96;235785;1193;138752;-62
2023/02/16 00:55:13;;;;;;;;;;;;;;;;;;;;;
2023/02/16 01:13:58;;;;;;;;;;;;;;;;;;;;;
2023/02/16 01:19:53;;;;;;;105.10;57.10;;;;;;;3.75;66.29;99908.89;235715;1195;139403;-65
2023/02/16 01:25:40;;;;;;;98.70;56.60;;;;;;;3.75;65.96;99905.91;235728;1193;139139;-62
2023/02/16 01:37:47;;;;;;;98.60;57.70;;;;;;;3.75;66.01;99896.76;235682;1193;139066;-65
2023/02/16 01:43:49;;;;;;;98.50;55.80;;;;;;;3.72;65.71;99884.03;235411;1193;138085;-65
2023/02/16 01:50:23;;;;;;;94.50;53.20;;;;;;;3.65;65.92;99878.55;235346;1193;138220;-64
2023/02/16 01:55:40;;;;;;;94.40;53.40;;;;;;;3.62;66.12;99881.59;235206;1193;138274;-64
2023/02/16 02:02:00;;;;;;;93.20;53.20;;;;;;;3.63;66.13;99874.05;226599;1214;635905;-75
2023/02/16 02:07:04;;;;;;;;;;;;;;;3.58;65.71;99866.23;229761;1201;138572;-73
2023/02/16 02:12:19;;;;;;;96.90;53.90;;;;;;;3.54;66.01;99863.85;231260;1199;124593;-74
2023/02/16 02:17:24;;;;;;;101.40;55.50;;;;;;;3.43;65.65;99861.09;234264;1198;138542;-75
2023/02/16 02:28:19;;;;;;;81.90;48.70;;;;;;;3.40;66.13;99850.65;234309;1197;138960;-75
2023/02/16 02:33:53;;;;;;;86.00;48.10;;;;;;;3.33;66.15;99851.84;233489;1196;137646;-76
2023/02/16 02:39:24;;;;;;;93.00;52.10;;;;;;;3.28;66.25;99857.19;228565;1202;137973;-76
2023/02/16 02:44:30;;;;;;;86.80;49.50;;;;;;;3.29;66.27;99855.77;231083;1196;138148;-77
2023/02/16 02:49:34;;;;;;;90.80;50.50;;;;;;;3.30;65.85;99850.82;229381;1196;138143;-75
2023/02/16 03:05:33;;;;;;;81.10;46.50;;;;;;;3.29;65.84;99849.98;228946;1199;138039;-78
2023/02/16 03:16:04;;;;;;;74.50;43.10;;;;;;;3.22;65.98;99860.81;230378;1195;138798;-76
2023/02/16 03:31:58;;;;;;;74.30;42.00;;;;;;;3.16;65.58;99865.48;229566;1199;138277;-74
2023/02/16 03:37:04;;;;;;;73.80;42.20;;;;;;;3.16;65.84;99866.00;232257;1195;138792;-74
2023/02/16 03:42:07;;;;;;;162.20;98.90;;;;;;;3.22;66.59;99862.05;229567;1199;139611;-72
2023/02/16 03:47:11;;;;;;;74.60;44.00;;;;;;;3.22;65.82;99861.15;230423;1198;139238;-73
2023/02/16 03:52:14;;;;;;;78.60;44.50;;;;;;;3.09;65.87;99860.53;231903;1193;138042;-75
2023/02/16 03:57:17;;;;;;;74.00;40.60;;;;;;;3.09;65.90;99858.59;233452;1193;138453;-72
2023/02/16 04:02:21;;;;;;;75.40;43.10;;;;;;;3.11;65.53;99858.21;233123;1192;137963;-72
2023/02/16 04:07:25;;;;;;;74.60;43.10;;;;;;;3.09;65.57;99856.66;233363;1193;138190;-73
2023/02/16 04:12:37;;;;;;;68.90;42.60;;;;;;;3.03;65.31;99855.89;230960;1195;139255;-73
2023/02/16 04:17:43;;;;;;;111.20;63.90;;;;;;;2.96;65.56;99852.88;231943;1193;138396;-75
2023/02/16 04:22:47;;;;;;;78.60;44.30;;;;;;;2.97;66.32;99851.28;229918;1195;138832;-75
2023/02/16 04:27:52;;;;;;;76.70;44.30;;;;;;;3.02;65.47;99850.30;231343;1195;139028;-75
2023/02/16 04:32:57;;;;;;;79.00;44.10;;;;;;;3.03;65.28;99852.91;231470;1190;138216;-75
2023/02/16 04:38:01;;;;;;;75.30;42.60;;;;;;;2.98;65.08;99846.71;233151;1194;138350;-75
2023/02/16 04:43:04;;;;;;;67.50;40.00;;;;;;;2.89;65.17;99841.95;230387;1192;137855;-76
2023/02/16 04:48:08;;;;;;;99.70;59.20;;;;;;;2.79;65.36;99838.61;229838;1194;138284;-74
2023/02/16 04:53:11;;;;;;;77.20;45.00;;;;;;;2.73;65.74;99837.33;229406;1196;138066;-74
2023/02/16 04:58:15;;;;;;;72.90;41.40;;;;;;;2.69;65.69;99840.73;234270;1192;138258;-74
2023/02/16 05:03:19;;;;;;;70.20;40.80;;;;;;;2.65;65.68;99835.71;233241;1193;138713;-74
2023/02/16 05:08:23;;;;;;;71.90;38.80;;;;;;;2.60;65.76;99842.11;231395;1193;138460;-75
2023/02/16 05:18:48;;;;;;;65.20;37.60;;;;;;;2.46;66.02;99840.58;234729;1192;138718;-73
2023/02/16 05:23:52;;;;;;;64.50;37.50;;;;;;;2.45;65.94;99838.15;231734;1193;140137;-74
2023/02/16 05:28:55;;;;;;;66.20;37.90;;;;;;;2.48;66.03;99833.20;234881;1193;138169;-74
2023/02/16 05:33:59;;;;;;;68.20;40.60;;;;;;;2.51;66.08;99828.25;234861;1193;138090;-75
2023/02/16 05:39:02;;;;;;;70.20;40.10;;;;;;;2.54;65.96;99823.98;235591;1193;138391;-79
2023/02/16 05:44:07;;;;;;;69.50;40.50;;;;;;;2.66;65.99;99827.82;230503;1193;138570;-76
2023/02/16 05:49:11;;;;;;;73.00;41.80;;;;;;;2.71;65.98;99831.06;233363;1193;138283;-75
2023/02/16 05:54:17;;;;;;;75.10;41.40;;;;;;;2.78;65.77;99837.25;232311;1192;138687;-76
2023/02/16 05:59:21;;;;;;;68.80;39.40;;;;;;;2.76;65.82;99838.32;233355;1195;139393;-76
2023/02/16 06:04:25;;;;;;;66.20;38.90;;;;;;;2.72;65.65;99840.33;231163;1195;138517;-75
2023/02/16 06:09:30;;;;;;;74.30;41.00;;;;;;;2.69;65.79;99840.91;235603;1195;139069;-73
2023/02/16 06:14:33;;;;;;;71.10;41.70;;;;;;;2.65;66.05;99843.95;235848;1192;138374;-71
2023/02/16 06:19:37;;;;;;;69.50;40.00;;;;;;;2.67;66.01;99844.61;235901;1193;138316;-73
2023/02/16 06:24:40;;;;;;;65.80;39.20;;;;;;;2.72;66.19;99844.71;232723;1192;138664;-76
2023/02/16 06:29:44;;;;;;;66.40;37.30;;;;;;;2.78;66.28;99851.95;234099;1195;138538;-75
2023/02/16 06:34:47;;;;;;;66.30;38.60;;;;;;;2.84;66.30;99853.96;232806;1192;138408;-73
2023/02/16 06:39:51;;;;;;;63.80;37.80;;;;;;;2.95;66.27;99847.45;234645;1193;138316;-72
2023/02/16 06:44:54;;;;;;;65.30;38.70;;;;;;;3.11;66.21;99839.26;230761;1193;138815;-74
2023/02/16 06:49:57;;;;;;;67.10;38.80;;;;;;;3.18;65.88;99844.41;230704;1192;139293;-72
2023/02/16 06:55:02;;;;;;;66.50;39.70;;;;;;;3.23;65.73;99847.10;232193;1191;138483;-73
2023/02/16 07:00:06;;;;;;;67.50;38.60;;;;;;;3.31;65.59;99851.70;233880;1192;138314;-73
2023/02/16 07:05:10;;;;;;;64.30;38.90;;;;;;;3.34;65.63;99851.11;233012;1195;138483;-71
2023/02/16 07:10:13;;;;;;;69.40;39.30;;;;;;;3.35;65.53;99848.29;230666;1191;138718;-71
2023/02/16 07:15:17;;;;;;;64.90;37.10;;;;;;;3.40;65.68;99849.06;230719;1195;138690;-71
2023/02/16 07:20:21;;;;;;;61.20;35.60;;;;;;;3.43;65.63;99848.30;231811;1193;139959;-75
2023/02/16 07:25:25;;;;;;;63.80;37.40;;;;;;;3.48;65.26;99851.69;230344;1195;137901;-71
2023/02/16 07:30:28;;;;;;;65.40;35.60;;;;;;;3.51;65.34;99856.73;233852;1192;138959;-72
2023/02/16 07:35:35;;;;;;;66.80;37.10;;;;;;;3.52;65.24;99850.56;233912;1191;138198;-71
2023/02/16 07:40:40;;;;;;;63.70;36.00;;;;;;;3.62;65.56;99850.54;234797;1193;138641;-72
2023/02/16 07:45:43;;;;;;;65.50;35.70;;;;;;;3.75;65.37;99847.29;231116;1193;139085;-71
2023/02/16 07:50:47;;;;;;;60.00;35.10;;;;;;;3.88;64.98;99836.30;229037;1198;138806;-74
2023/02/16 07:55:50;;;;;;;62.50;36.90;;;;;;;4.05;64.52;99841.89;230912;1196;139290;-71
2023/02/16 08:01:06;;;;;;;61.90;37.00;;;;;;;4.16;64.38;99838.31;232111;1193;139262;-71
2023/02/16 08:06:11;;;;;;;63.50;37.60;;;;;;;4.23;64.06;99833.93;233861;1193;139196;-71
2023/02/16 08:11:21;;;;;;;62.30;35.50;;;;;;;4.31;63.80;99834.61;232060;1192;138649;-74
2023/02/16 08:16:27;;;;;;;64.00;35.80;;;;;;;4.30;63.57;99833.39;230805;1193;138606;-73
2023/02/16 08:21:32;;;;;;;62.20;34.10;;;;;;;4.33;63.59;99834.20;234482;1193;138385;-73
2023/02/16 08:26:39;;;;;;;59.20;34.00;;;;;;;4.32;63.65;99836.34;229213;1195;138843;-72
2023/02/16 08:31:45;;;;;;;57.10;33.70;;;;;;;4.37;63.65;99837.61;229871;1194;138930;-71
2023/02/16 08:36:55;;;;;;;61.30;34.40;;;;;;;4.48;63.65;99828.92;229546;1196;139215;-73
2023/02/16 08:42:00;;;;;;;58.60;33.10;;;;;;;4.60;63.86;99819.67;232061;1196;138933;-73
2023/02/16 08:47:04;;;;;;;57.30;31.20;;;;;;;4.72;63.55;99816.72;233503;1194;138614;-73
2023/02/16 08:52:08;;;;;;;55.60;31.60;;;;;;;4.85;62.91;99814.82;230992;1194;139092;-72
2023/02/16 08:57:12;;;;;;;61.60;33.10;;;;;;;4.91;62.83;99809.37;230319;1194;140887;-72
2023/02/16 09:02:16;;;;;;;53.40;31.90;;;;;;;5.07;62.54;99812.14;233687;1194;138939;-72
2023/02/16 09:07:21;;;;;;;55.40;31.00;;;;;;;5.14;62.34;99812.11;235345;1193;139931;-71
2023/02/16 09:12:24;;;;;;;57.20;32.50;;;;;;;5.23;62.34;99810.26;232812;1193;139586;-72
2023/02/16 09:17:28;;;;;;;55.50;32.60;;;;;;;5.41;62.72;99808.35;234520;1193;138226;-71
2023/02/16 09:22:32;;;;;;;53.60;31.50;;;;;;;5.61;61.89;99806.70;231964;1196;139235;-72
2023/02/16 09:27:36;;;;;;;56.80;30.40;;;;;;;5.78;60.96;99804.98;232617;1193;140919;-71
2023/02/16 09:32:40;;;;;;;50.00;29.70;;;;;;;5.92;61.05;99802.45;233325;1197;138810;-71
2023/02/16 09:37:43;;;;;;;111.00;67.60;;;;;;;6.13;60.36;99800.92;230474;1193;139850;-72
2023/02/16 09:43:03;;;;;;;58.00;30.30;;;;;;;6.32;60.41;99790.81;235765;1193;139090;-71
2023/02/16 09:48:23;;;;;;;48.70;26.30;;;;;;;6.53;59.44;99792.07;231720;1193;139332;-71
2023/02/16 09:53:39;;;;;;;41.20;26.50;;;;;;;6.64;58.64;99792.73;235971;1192;138269;-71
2023/02/16 09:58:52;;;;;;;44.90;27.40;;;;;;;6.76;58.68;99790.22;232687;1193;140255;-70
2023/02/16 10:04:23;;;;;;;49.30;27.10;;;;;;;6.90;58.19;99789.21;235486;1192;139693;-70
2023/02/16 10:09:29;;;;;;;51.70;29.30;;;;;;;6.99;58.57;99792.95;232383;1194;139019;-71
2023/02/16 10:14:45;;;;;;;45.20;26.40;;;;;;;7.18;58.11;99788.38;232484;1193;138716;-71
2023/02/16 10:19:55;;;;;;;42.80;24.60;;;;;;;7.33;57.46;99787.48;231630;1193;139294;-70
2023/02/16 10:25:22;;;;;;;43.30;24.50;;;;;;;7.47;57.03;99787.84;232705;1194;138817;-71
2023/02/16 10:30:30;;;;;;;44.00;26.00;;;;;;;7.63;56.72;99784.77;233859;1193;159836;-70
2023/02/16 10:35:46;;;;;;;44.90;25.10;;;;;;;7.82;56.32;99783.16;235467;1193;138650;-71
2023/02/16 10:41:28;;;;;;;44.90;26.10;;;;;;;8.09;55.86;99782.30;233471;1193;139242;-72
2023/02/16 10:46:39;;;;;;;42.80;25.70;;;;;;;8.29;55.28;99775.30;233176;1198;139401;-71
2023/02/16 10:51:47;;;;;;;38.50;24.50;;;;;;;8.45;54.40;99769.89;234531;1193;139216;-71
2023/02/16 10:57:02;;;;;;;48.00;26.30;;;;;;;8.62;54.46;99763.67;230922;1193;140177;-70
2023/02/16 11:02:24;;;;;;;46.90;27.60;;;;;;;8.76;54.01;99757.77;230579;1196;139927;-71
2023/02/16 11:07:30;;;;;;;44.80;24.20;;;;;;;8.95;54.25;99749.19;231751;1195;139592;-73
2023/02/16 11:12:41;;;;;;;42.60;23.90;;;;;;;9.11;53.96;99740.86;234486;1192;139094;-70
2023/02/16 11:17:58;;;;;;;35.60;19.60;;;;;;;9.29;52.67;99727.64;230576;1193;138664;-72
2023/02/16 11:23:24;;;;;;;31.60;18.00;;;;;;;9.40;51.03;99723.77;229672;1198;138842;-74
2023/02/16 11:28:36;;;;;;;31.10;18.10;;;;;;;9.42;49.53;99717.12;233469;1193;140309;-76
2023/02/16 11:33:42;;;;;;;229.10;134.30;;;;;;;9.36;49.70;99701.49;231814;1193;138920;-73
2023/02/16 11:38:58;;;;;;;32.50;18.10;;;;;;;9.41;49.82;99695.74;235452;1195;139057;-76
2023/02/16 11:44:02;;;;;;;31.20;17.30;;;;;;;9.44;49.03;99686.39;229879;1194;138700;-74
2023/02/16 11:49:40;;;;;;;28.20;15.80;;;;;;;9.51;49.01;99681.32;230626;1196;138447;-73
2023/02/16 11:54:54;;;;;;;28.30;16.50;;;;;;;9.54;48.37;99677.09;231096;1195;138903;-75
2023/02/16 12:00:00;;;;;;;26.80;17.80;;;;;;;9.60;47.58;99674.52;231551;1196;139307;-76
2023/02/16 12:05:16;;;;;;;31.30;17.60;;;;;;;9.62;47.99;99669.96;233034;1196;138198;-75
2023/02/16 12:10:20;;;;;;;30.80;16.80;;;;;;;9.72;48.01;99656.37;234586;1195;139077;-74
2023/02/16 12:15:29;;;;;;;29.40;16.40;;;;;;;9.89;47.71;99649.68;234579;1192;139016;-73
2023/02/16 12:21:11;;;;;;;27.40;16.10;;;;;;;10.02;47.37;99642.12;232483;1196;138650;-75
2023/02/16 12:26:17;;;;;;;28.40;16.40;;;;;;;10.14;47.05;99640.25;230442;1195;138816;-75
2023/02/16 12:31:33;;;;;;;24.30;16.30;;;;;;;10.16;46.81;99637.12;230603;1196;139064;-75
2023/02/16 12:36:47;;;;;;;29.20;17.10;;;;;;;10.22;46.80;99628.90;230197;1196;138758;-74
2023/02/16 12:42:26;;;;;;;27.70;17.20;;;;;;;10.36;46.64;99624.30;231849;1199;139546;-73
2023/02/16 12:47:44;;;;;;;25.90;16.60;;;;;;;10.44;46.14;99619.99;229238;1199;138966;-73
2023/02/16 12:52:56;;;;;;;30.30;16.30;;;;;;;10.54;46.31;99617.88;235100;1196;139403;-72
2023/02/16 12:58:29;;;;;;;31.40;16.50;;;;;;;10.58;46.82;99605.05;234994;1193;138659;-74
2023/02/16 13:03:50;;;;;;;27.20;16.30;;;;;;;10.72;46.19;99603.41;232480;1193;138807;-74
2023/02/16 13:09:05;;;;;;;29.50;16.60;;;;;;;10.81;46.21;99598.67;230210;1193;138831;-73
2023/02/16 13:14:15;;;;;;;;;;;;;;;10.93;45.94;99596.23;235287;1193;138905;-73
2023/02/16 13:19:19;;;;;;;29.30;14.60;;;;;;;10.98;45.95;99589.75;235592;1193;124636;-73
2023/02/16 13:24:37;;;;;;;27.70;16.00;;;;;;;10.99;45.53;99592.17;235255;1192;139078;-72
2023/02/16 13:30:00;;;;;;;30.10;16.10;;;;;;;11.12;45.43;99589.84;235869;1194;138820;-74
2023/02/16 13:35:35;;;;;;;24.80;15.50;;;;;;;11.30;44.62;99588.67;230761;1192;138993;-74
2023/02/16 13:41:17;;;;;;;24.70;14.80;;;;;;;11.47;44.78;99581.16;229730;1196;138937;-73
2023/02/16 13:46:31;;;;;;;22.20;14.80;;;;;;;11.55;44.28;99573.04;231870;1196;138619;-72
2023/02/16 13:51:46;;;;;;;23.90;13.80;;;;;;;11.55;44.10;99565.04;233360;1193;138838;-72
2023/02/16 13:56:50;;;;;;;27.50;14.70;;;;;;;11.57;44.44;99568.14;233174;1197;139191;-74
2023/02/16 14:01:56;;;;;;;102.90;59.70;;;;;;;11.58;44.55;99566.14;233611;1196;139627;-74
2023/02/16 14:07:02;;;;;;;26.90;15.30;;;;;;;11.51;43.79;99569.17;231648;1196;138845;-71
2023/02/16 14:12:10;;;;;;;27.00;15.10;;;;;;;11.43;44.14;99568.95;232589;1196;138854;-74
2023/02/16 14:17:20;;;;;;;23.90;14.60;;;;;;;11.34;44.10;99572.84;235524;1196;138597;-73
2023/02/16 14:22:32;;;;;;;28.00;15.00;;;;;;;11.23;44.53;99570.24;232863;1194;139187;-72
2023/02/16 14:27:42;;;;;;;24.30;15.10;;;;;;;11.16;44.85;99570.52;232076;1196;138802;-73
2023/02/16 14:32:50;;;;;;;28.40;14.50;;;;;;;11.09;44.91;99569.41;232011;1196;139249;-74
2023/02/16 14:38:04;;;;;;;29.60;15.80;;;;;;;10.94;45.00;99570.44;231334;1196;139202;-74
2023/02/16 14:43:33;;;;;;;25.50;15.60;;;;;;;10.84;45.46;99568.70;231599;1196;138721;-74
2023/02/16 14:49:18;;;;;;;28.30;15.30;;;;;;;10.86;45.75;99572.48;230940;1193;138622;-74
2023/02/16 14:54:56;;;;;;;25.10;14.90;;;;;;;10.84;45.77;99568.68;232172;1193;139193;-73
2023/02/16 15:00:27;;;;;;;28.10;15.90;;;;;;;10.79;45.85;99563.98;231834;1193;139096;-73
2023/02/16 15:05:36;;;;;;;26.70;15.30;;;;;;;10.77;45.92;99554.86;229344;1196;140342;-74
2023/02/16 15:10:46;;;;;;;32.60;16.70;;;;;;;10.76;45.97;99554.20;231183;1193;138996;-74
2023/02/16 15:15:54;;;;;;;27.00;16.20;;;;;;;10.75;46.38;99545.74;230670;1196;138697;-76
2023/02/16 15:20:59;;;;;;;28.20;16.60;;;;;;;10.71;46.40;99547.73;232389;1196;139059;-73
2023/02/16 15:26:13;;;;;;;28.10;15.90;;;;;;;10.64;46.34;99548.14;229664;1193;138521;-73
2023/02/16 15:31:20;;;;;;;26.80;16.40;;;;;;;10.51;46.95;99553.62;230493;1193;138458;-73
2023/02/16 16:38:00;;;;;;;37.40;21.80;;;;;;;9.67;50.41;99558.61;229604;1199;107632;-74
2023/02/16 16:46:29;;;;;;;34.40;21.80;;;;;;;9.67;50.48;99557.91;230036;1215;634835;-63
2023/02/16 16:52:42;;;;;;;42.20;24.20;;;;;;;9.59;50.98;99562.73;231508;1202;137955;-65
2023/02/16 16:58:07;;;;;;;45.00;24.90;;;;;;;9.56;50.91;99565.23;234527;1199;137943;-68
2023/02/16 17:04:26;;;;;;;43.90;25.20;;;;;;;9.53;51.49;99565.36;234547;1199;138257;-67
2023/02/16 17:10:04;;;;;;;;;;;;;;;;;;;;;
2023/02/16 17:15:26;;;;;;;45.50;25.30;;;;;;;9.48;52.07;99572.70;234409;1201;139185;-63
2023/02/16 17:21:18;;;;;;;;;;;;;;;;;;;;;
2023/02/16 17:27:09;;;;;;;45.00;25.80;;;;;;;9.20;52.17;99580.58;234853;1196;138201;-64
2023/02/16 17:32:49;;;;;;;44.90;25.30;;;;;;;9.07;52.46;99584.23;234864;1196;137569;-67
2023/02/16 17:37:54;;;;;;;43.60;25.40;;;;;;;9.02;52.30;99583.77;234885;1195;138220;-69
2023/02/16 17:43:20;;;;;;;42.70;26.20;;;;;;;8.93;52.07;99588.77;234874;1196;139101;-64
2023/02/16 17:48:55;;;;;;;39.20;24.10;;;;;;;8.87;51.99;99590.13;234957;1197;137993;-67
2023/02/16 17:54:18;;;;;;;43.20;25.50;;;;;;;8.80;51.90;99586.70;234986;1196;138416;-66
2023/02/16 17:59:32;;;;;;;48.30;26.20;;;;;;;8.73;51.78;99586.80;234819;1196;139218;-66
2023/02/16 18:04:49;;;;;;;40.20;24.80;;;;;;;8.67;51.49;99590.50;234767;1196;138197;-66
2023/02/16 18:10:18;;;;;;;42.20;24.90;;;;;;;8.57;51.73;99594.30;234832;1196;151733;-68
2023/02/16 18:16:21;;;;;;;;;;;;;;;;;;;;;
2023/02/16 18:21:57;;;;;;;42.90;24.80;;;;;;;8.44;51.67;99593.83;234815;1196;137819;-68
2023/02/16 18:27:45;;;;;;;41.40;24.80;;;;;;;8.37;51.79;99594.45;234708;1196;138227;-67
2023/02/16 18:33:32;;;;;;;43.20;25.00;;;;;;;8.29;51.89;99601.31;234696;1195;138513;-66
2023/02/16 18:39:47;;;;;;;;;;;;;;;;;;;;;
2023/02/16 18:45:21;;;;;;;42.50;24.80;;;;;;;8.06;52.32;99609.74;234659;1196;138184;-67
2023/02/16 18:51:00;;;;;;;;;;;;;;;;;;;;;
2023/02/16 18:56:57;;;;;;;42.30;26.90;;;;;;;7.84;52.68;99617.23;234794;1197;137642;-68
2023/02/16 19:03:21;;;;;;;48.40;25.80;;;;;;;7.62;53.08;99624.14;234619;1197;138360;-65
2023/02/16 19:09:26;;;;;;;125.90;73.50;;;;;;;7.42;54.43;99622.30;234746;1196;138005;-68
2023/02/16 19:14:44;;;;;;;;;;;;;;;;;;;;;
2023/02/16 19:20:10;;;;;;;50.50;30.30;;;;;;;7.23;54.91;99628.86;235035;1196;138504;-67
2023/02/16 19:25:36;;;;;;;50.30;28.80;;;;;;;7.23;54.37;99634.66;234951;1194;139092;-69
2023/02/16 19:31:58;;;;;;;51.80;29.40;;;;;;;7.26;54.46;99625.75;234985;1193;138110;-66
2023/02/16 19:38:13;;;;;;;;;;;;;;;;;;;;;
2023/02/16 19:44:00;;;;;;;55.00;30.50;;;;;;;7.03;54.68;99620.27;235101;1193;138178;-68
2023/02/16 19:50:21;;;;;;;148.70;93.00;;;;;;;6.90;54.98;99620.58;235192;1194;139051;-69
2023/02/16 19:56:17;;;;;;;52.30;31.10;;;;;;;6.96;55.67;99617.72;234915;1194;139043;-71
2023/02/16 20:02:14;;;;;;;;;;;;;;;;;;;;;
2023/02/16 20:08:19;;;;;;;50.90;29.00;;;;;;;6.83;55.04;99619.80;234699;1194;138170;-68
2023/02/16 20:14:37;;;;;;;53.90;31.30;;;;;;;6.74;55.29;99621.19;235004;1194;137938;-71
2023/02/16 20:20:21;;;;;;;52.30;30.00;;;;;;;6.70;55.20;99620.82;235066;1194;138132;-69
2023/02/16 20:25:55;;;;;;;;;;;;;;;;;;;;;
2023/02/16 20:32:04;;;;;;;;;;;;;;;;;;;;;
2023/02/16 20:37:40;;;;;;;54.20;30.90;;;;;;;6.57;55.61;99619.15;232404;1196;138195;-68
2023/02/16 20:43:26;;;;;;;;;;;;;;;;;;;;;
2023/02/16 20:48:57;;;;;;;58.90;33.40;;;;;;;6.43;56.04;99627.42;235865;1193;138045;-66
2023/02/16 20:54:52;;;;;;;56.70;32.90;;;;;;;6.44;56.23;99628.98;235254;1194;138193;-68
2023/02/16 21:00:18;;;;;;;56.20;31.50;;;;;;;6.37;56.32;99628.67;235335;1193;138873;-74
2023/02/16 21:06:05;;;;;;;54.60;32.20;;;;;;;6.30;56.25;99620.33;235164;1196;140117;-74
2023/02/16 21:11:41;;;;;;;;;;;;;;;;;;;;;
2023/02/16 21:16:53;;;;;;;49.70;29.80;;;;;;;5.93;56.77;99616.27;235176;1194;138177;-69
2023/02/16 21:22:46;;;;;;;50.30;29.90;;;;;;;5.80;57.19;99616.19;235048;1195;139109;-71
2023/02/16 21:28:35;;;;;;;52.20;31.10;;;;;;;5.70;57.84;99622.84;235183;1196;139435;-72
2023/02/16 21:34:05;;;;;;;50.50;30.20;;;;;;;5.74;57.68;99619.36;235104;1194;138012;-68
2023/02/16 21:46:19;;;;;;;53.90;30.70;;;;;;;5.68;58.21;99617.28;235163;1194;137899;-70
2023/02/16 21:52:14;;;;;;;50.40;30.70;;;;;;;5.73;57.86;99608.46;235144;1193;138624;-69
2023/02/16 21:58:25;;;;;;;54.30;30.90;;;;;;;5.78;57.72;99610.95;235100;1194;138039;-70
2023/02/16 22:04:31;;;;;;;;;;;;;;;;;;;;;
2023/02/16 22:10:37;;;;;;;51.90;30.20;;;;;;;5.86;57.76;99616.67;235136;1194;138454;-70
2023/02/16 22:16:33;;;;;;;57.30;32.10;;;;;;;5.88;57.57;99612.55;235392;1193;138170;-68
2023/02/16 22:22:50;;;;;;;56.50;33.20;;;;;;;5.87;57.55;99611.19;235176;1195;138158;-68
2023/02/16 22:35:52;;;;;;;55.30;32.10;;;;;;;5.78;57.48;99610.80;234794;1195;138184;-72
2023/02/16 22:41:22;;;;;;;55.10;33.20;;;;;;;5.77;57.76;99607.98;234641;1199;138155;-70
2023/02/16 22:46:58;;;;;;;;;;;;;;;;;;;;;
2023/02/16 22:52:52;;;;;;;;;;;;;;;;;;;;;
2023/02/16 22:59:00;;;;;;;54.50;32.90;;;;;;;5.54;58.00;99612.80;235066;1197;124681;-83
2023/02/16 23:05:08;;;;;;;59.70;35.50;;;;;;;5.45;58.71;99612.20;235139;1193;138266;-78
2023/02/16 23:11:25;;;;;;;58.20;33.50;;;;;;;5.46;58.70;99611.80;234920;1195;138680;-78
2023/02/16 23:17:33;;;;;;;59.90;32.90;;;;;;;5.49;58.63;99618.08;235074;1194;138103;-75
2023/02/16 23:23:37;;;;;;;58.40;33.30;;;;;;;5.52;58.95;99614.11;235148;1194;137954;-71
2023/02/16 23:29:09;;;;;;;55.10;31.40;;;;;;;5.61;58.51;99613.80;235041;1194;138675;-73
2023/02/16 23:35:11;;;;;;;61.10;32.70;;;;;;;5.59;58.60;99612.11;235155;1198;137901;-74
2023/02/16 23:40:45;;;;;;;53.70;32.00;;;;;;;5.51;58.74;99610.25;235122;1197;138408;-74
2023/02/16 23:46:38;;;;;;;56.40;32.60;;;;;;;5.51;59.18;99610.25;235141;1197;138325;-73
2023/02/16 23:53:01;;;;;;;55.80;31.80;;;;;;;5.55;59.02;99602.90;235120;1194;137760;-73
2023/02/16 23:58:44;;;;;;;50.40;30.50;;;;;;;5.65;59.11;99605.21;235157;1195;138344;-68
